Aviation Digital Data Service (ADDS)

Output produced by TAFs form (1502 UTC 01 March 2015)
found at http://www.aviationweather.gov/adds/tafs/
 
KGFL 011135Z 0112/0212 00000KT P6SM BKN100 
     FM011400 16003KT P6SM VCSH OVC080 
     FM011600 17005KT 3SM -SN BR BKN025 OVC040 
     FM012000 VRB03KT 2SM -SN BR BKN015 OVC030 
     FM020800 VRB03KT P6SM VCSH OVC015